createdAt,value
2022-11-16T00:01:27.272Z,98710.41
2022-11-16T00:03:58.276Z,98709.63
2022-11-16T00:06:28.650Z,98708.03
2022-11-16T00:09:19.257Z,98708.09
2022-11-16T00:11:52.469Z,98704.47
2022-11-16T00:14:23.338Z,98709.75
2022-11-16T00:16:52.806Z,98700.50
2022-11-16T00:19:21.848Z,98703.09
2022-11-16T00:21:51.043Z,98705.78
2022-11-16T00:24:22.000Z,98690.16
2022-11-16T00:26:51.743Z,98697.19
2022-11-16T00:29:26.412Z,98701.41
2022-11-16T00:31:56.662Z,98697.50
2022-11-16T00:34:25.955Z,98696.66
2022-11-16T00:36:55.303Z,98704.41
2022-11-16T00:39:24.536Z,98704.41
2022-11-16T00:41:53.696Z,98705.38
2022-11-16T00:44:22.491Z,98708.88
2022-11-16T00:46:51.696Z,98711.72
2022-11-16T00:49:20.630Z,98715.97
2022-11-16T00:51:49.777Z,98724.41
2022-11-16T00:54:18.792Z,98727.06
2022-11-16T00:56:48.019Z,98733.09
2022-11-16T00:59:17.245Z,98738.25
2022-11-16T01:01:47.802Z,98733.94
2022-11-16T01:04:20.509Z,98734.84
2022-11-16T01:06:50.492Z,98739.94
2022-11-16T01:09:23.845Z,98739.88
2022-11-16T01:12:11.463Z,98743.38
2022-11-16T01:14:50.030Z,98751.03
2022-11-16T01:17:19.963Z,98745.94
2022-11-16T01:19:49.578Z,98743.41
2022-11-16T01:22:19.981Z,98758.16
2022-11-16T01:24:49.891Z,98756.44
2022-11-16T01:27:20.100Z,98759.81
2022-11-16T01:29:49.777Z,98768.50
2022-11-16T01:32:19.797Z,98761.69
2022-11-16T01:34:49.608Z,98768.44
2022-11-16T01:37:32.032Z,98778.22
2022-11-16T01:40:02.439Z,98773.09
2022-11-16T01:42:34.548Z,98792.03
2022-11-16T01:45:13.238Z,98792.72
2022-11-16T01:47:42.883Z,98788.50
2022-11-16T01:50:18.990Z,98796.34
2022-11-16T01:53:05.782Z,98800.59
2022-11-16T01:55:46.716Z,98798.13
2022-11-16T01:58:37.483Z,98800.63
2022-11-16T02:01:18.728Z,98801.41
2022-11-16T02:03:53.633Z,98812.59
2022-11-16T02:06:26.786Z,98816.88
2022-11-16T02:09:45.447Z,98817.38
2022-11-16T02:12:43.094Z,98819.88
2022-11-16T02:15:38.340Z,98824.84
2022-11-16T02:18:41.072Z,98820.44
2022-11-16T02:21:36.918Z,98831.59
2022-11-16T02:24:27.581Z,98834.19
2022-11-16T02:27:13.145Z,98843.69
2022-11-16T02:29:54.078Z,98841.63
2022-11-16T02:32:40.862Z,98845.94
2022-11-16T02:35:36.099Z,98862.13
2022-11-16T02:38:14.530Z,98854.34
2022-11-16T02:40:49.322Z,98854.19
2022-11-16T02:43:38.218Z,98858.34
2022-11-16T02:46:14.052Z,98859.97
2022-11-16T02:48:51.947Z,98861.53
2022-11-16T02:51:24.767Z,98864.94
2022-11-16T02:54:21.840Z,98860.34
2022-11-16T02:57:05.540Z,98871.38
2022-11-16T02:59:44.583Z,98874.72
2022-11-16T03:03:03.928Z,98878.84
2022-11-16T03:05:45.576Z,98886.56
2022-11-16T03:08:18.878Z,98884.66
2022-11-16T03:11:15.341Z,98882.94
2022-11-16T03:13:46.360Z,98894.94
2022-11-16T03:16:34.977Z,98907.63
2022-11-16T03:19:09.784Z,98901.34
2022-11-16T03:21:51.533Z,98913.22
2022-11-16T03:24:23.598Z,98919.38
2022-11-16T03:27:17.595Z,98916.44
2022-11-16T03:29:59.700Z,98924.09
2022-11-16T03:32:38.893Z,98932.38
2022-11-16T03:35:24.875Z,98931.59
2022-11-16T03:37:58.331Z,98934.09
2022-11-16T03:40:32.932Z,98934.72
2022-11-16T03:43:08.069Z,98934.53
2022-11-16T03:45:39.777Z,98947.38
2022-11-16T03:48:10.573Z,98954.06
2022-11-16T03:50:41.935Z,98948.63
2022-11-16T03:53:12.342Z,98951.22
2022-11-16T03:55:48.482Z,98946.81
2022-11-16T03:58:19.877Z,98947.59
2022-11-16T04:00:50.124Z,98943.72
2022-11-16T04:03:21.376Z,98949.00
2022-11-16T04:06:10.080Z,98950.56
2022-11-16T04:09:00.483Z,98958.06
2022-11-16T04:11:49.973Z,98952.69
2022-11-16T04:14:40.763Z,98954.19
2022-11-16T04:17:38.903Z,98960.38
2022-11-16T04:20:32.821Z,98963.03
2022-11-16T04:23:32.187Z,98966.41
2022-11-16T04:26:04.396Z,98964.34
2022-11-16T04:28:36.057Z,98960.59
2022-11-16T04:31:27.120Z,98965.78
2022-11-16T04:34:23.949Z,98964.56
2022-11-16T04:37:15.298Z,98965.16
2022-11-16T04:39:45.043Z,98967.66
2022-11-16T04:42:21.016Z,98966.69
2022-11-16T04:45:11.141Z,98976.06
2022-11-16T04:47:51.571Z,98971.38
2022-11-16T04:50:23.209Z,98974.78
2022-11-16T04:52:53.155Z,98976.19
2022-11-16T04:55:22.444Z,98980.84
2022-11-16T04:57:52.617Z,98975.34
2022-11-16T05:00:23.220Z,98970.41
2022-11-16T05:02:58.220Z,98971.81
2022-11-16T05:05:30.976Z,98975.28
2022-11-16T05:08:01.515Z,98965.59
2022-11-16T05:10:33.423Z,98971.97
2022-11-16T05:13:02.831Z,98973.81
2022-11-16T05:15:31.936Z,98960.66
2022-11-16T05:18:01.785Z,98972.31
2022-11-16T05:20:50.448Z,98974.13
2022-11-16T05:23:38.089Z,98969.66
2022-11-16T05:26:12.664Z,98967.41
2022-11-16T05:28:41.928Z,98964.72
2022-11-16T05:31:13.564Z,98962.59
2022-11-16T05:33:43.121Z,98959.16
2022-11-16T05:36:13.565Z,98965.66
2022-11-16T05:38:42.613Z,98957.59
2022-11-16T05:41:14.907Z,98962.69
2022-11-16T05:43:44.731Z,98952.91
2022-11-16T05:46:19.796Z,98959.19
2022-11-16T05:48:49.502Z,98959.72
2022-11-16T05:51:19.154Z,98957.03
2022-11-16T05:53:50.273Z,98951.59
2022-11-16T05:56:24.185Z,98952.38
2022-11-16T05:58:55.277Z,98948.31
2022-11-16T06:01:24.446Z,98939.34
2022-11-16T06:03:54.291Z,98944.41
2022-11-16T06:06:23.035Z,98944.78
2022-11-16T06:08:53.467Z,98941.94
2022-11-16T06:11:29.135Z,98934.81
2022-11-16T06:14:02.088Z,98933.88
2022-11-16T06:16:31.360Z,98927.63
2022-11-16T06:19:02.430Z,98918.78
2022-11-16T06:21:31.758Z,98919.47
2022-11-16T06:24:04.153Z,98912.44
2022-11-16T06:26:33.729Z,98907.59
2022-11-16T06:29:03.049Z,98904.94
2022-11-16T06:31:33.258Z,98903.00
2022-11-16T06:34:04.700Z,98906.47
2022-11-16T06:36:34.273Z,98901.03
2022-11-16T06:39:03.097Z,98894.59
2022-11-16T06:41:41.233Z,98893.78
2022-11-16T06:44:13.021Z,98889.91
2022-11-16T06:46:52.267Z,98888.56
2022-11-16T06:49:21.629Z,98886.25
2022-11-16T06:51:52.920Z,98886.06
2022-11-16T06:54:21.981Z,98875.59
2022-11-16T06:56:51.536Z,98868.50
2022-11-16T06:59:21.340Z,98874.56
2022-11-16T07:01:52.087Z,98865.63
2022-11-16T07:04:22.606Z,98866.75
2022-11-16T07:06:56.711Z,98865.63
2022-11-16T07:09:26.283Z,98860.28
2022-11-16T07:11:55.433Z,98859.09
2022-11-16T07:14:25.232Z,98850.22
2022-11-16T07:16:59.322Z,98855.06
2022-11-16T07:19:30.252Z,98852.25
2022-11-16T07:22:01.377Z,98842.78
2022-11-16T07:24:30.473Z,98845.59
2022-11-16T07:26:59.224Z,98841.06
2022-11-16T07:29:33.391Z,98839.91
2022-11-16T07:32:29.476Z,98833.56
2022-11-16T07:35:14.622Z,98834.72
2022-11-16T07:37:46.879Z,98838.06
2022-11-16T07:40:17.747Z,98833.38
2022-11-16T07:42:48.031Z,98833.13
2022-11-16T07:45:28.935Z,98829.66
2022-11-16T07:48:08.226Z,98824.81
2022-11-16T07:50:56.277Z,98813.63
2022-11-16T07:53:25.665Z,98812.19
2022-11-16T07:55:55.552Z,98814.63
2022-11-16T07:58:28.574Z,98812.22
2022-11-16T08:01:15.500Z,98808.50
2022-11-16T08:03:48.099Z,98806.69
2022-11-16T08:06:25.064Z,98803.13
2022-11-16T08:08:58.654Z,98800.06
2022-11-16T08:11:30.254Z,98798.66
2022-11-16T08:13:59.917Z,98796.94
2022-11-16T08:16:29.521Z,98789.03
2022-11-16T08:19:07.965Z,98789.72
2022-11-16T08:21:37.356Z,98780.81
2022-11-16T08:24:06.790Z,98784.00
2022-11-16T08:26:39.856Z,98779.91
2022-11-16T08:29:12.954Z,98775.75
2022-11-16T08:31:46.875Z,98780.34
2022-11-16T08:34:20.050Z,98773.28
2022-11-16T08:36:53.316Z,98767.34
2022-11-16T08:39:29.118Z,98761.88
2022-11-16T08:41:58.679Z,98759.22
2022-11-16T08:44:27.637Z,98764.06
2022-11-16T08:46:59.521Z,98757.50
2022-11-16T08:49:36.077Z,98751.84
2022-11-16T08:52:07.070Z,98761.19
2022-11-16T08:54:37.194Z,98751.91
2022-11-16T08:57:07.572Z,98754.97
2022-11-16T08:59:39.352Z,98755.38
2022-11-16T09:02:14.078Z,98757.09
2022-11-16T09:04:43.383Z,98749.75
2022-11-16T09:07:12.346Z,98751.78
2022-11-16T09:09:42.035Z,98748.09
2022-11-16T09:12:10.783Z,98744.63
2022-11-16T09:14:40.023Z,98738.50
2022-11-16T09:17:09.298Z,98736.03
2022-11-16T09:19:38.733Z,98737.50
2022-11-16T09:22:07.884Z,98737.56
2022-11-16T09:24:37.236Z,98739.59
2022-11-16T09:27:07.705Z,98743.59
2022-11-16T09:29:36.848Z,98737.13
2022-11-16T09:32:06.879Z,98740.41
2022-11-16T09:34:37.182Z,98735.78
2022-11-16T09:37:06.587Z,98730.84
2022-11-16T09:39:35.617Z,98735.78
2022-11-16T09:42:48.583Z,98732.41
2022-11-16T09:45:26.533Z,98726.75
2022-11-16T09:48:04.184Z,98717.22
2022-11-16T09:50:44.588Z,98723.41
2022-11-16T09:53:52.086Z,98730.72
2022-11-16T09:56:26.629Z,98729.50
2022-11-16T09:59:02.580Z,98725.97
2022-11-16T10:01:50.331Z,98723.72
2022-11-16T10:04:48.821Z,98729.00
2022-11-16T10:07:26.625Z,98721.84
2022-11-16T10:09:58.443Z,98721.94
2022-11-16T10:12:44.464Z,98716.94
2022-11-16T10:15:31.741Z,98716.91
2022-11-16T10:18:28.612Z,98724.13
2022-11-16T10:21:25.243Z,98722.25
2022-11-16T10:24:35.015Z,98716.34
2022-11-16T10:27:34.080Z,98721.44
2022-11-16T10:30:18.437Z,98725.75
2022-11-16T10:33:10.744Z,98726.38
2022-11-16T10:35:53.138Z,98724.72
2022-11-16T10:38:26.842Z,98725.78
2022-11-16T10:41:21.557Z,98729.22
2022-11-16T10:43:51.024Z,98726.34
2022-11-16T10:46:25.462Z,98728.53
2022-11-16T10:48:59.604Z,98728.75
2022-11-16T10:51:29.089Z,98730.06
2022-11-16T10:53:58.132Z,98732.34
2022-11-16T10:56:41.744Z,98734.59
2022-11-16T10:59:16.328Z,98741.00
2022-11-16T11:01:52.307Z,98739.00
2022-11-16T11:04:23.375Z,98745.31
2022-11-16T11:07:21.175Z,98739.97
2022-11-16T11:09:55.116Z,98745.31
2022-11-16T11:12:41.691Z,98744.16
2022-11-16T11:15:20.140Z,98745.53
2022-11-16T11:18:11.704Z,98743.41
2022-11-16T11:20:45.000Z,98745.13
2022-11-16T11:23:25.531Z,98737.88
2022-11-16T11:26:02.196Z,98749.06
2022-11-16T11:28:38.089Z,98757.41
2022-11-16T11:31:18.256Z,98756.34
2022-11-16T11:34:01.604Z,98753.47
2022-11-16T11:36:41.516Z,98751.88
2022-11-16T11:39:13.547Z,98758.34
2022-11-16T11:41:45.256Z,98755.00
2022-11-16T11:44:19.853Z,98761.25
2022-11-16T11:47:50.443Z,98764.75
2022-11-16T11:50:17.835Z,98756.91
2022-11-16T11:53:13.082Z,98765.84
2022-11-16T11:55:42.830Z,98762.78
2022-11-16T11:58:19.641Z,98766.91
2022-11-16T12:01:24.857Z,98765.25
2022-11-16T12:04:09.742Z,98768.50
2022-11-16T12:06:44.179Z,98769.56
2022-11-16T12:09:39.403Z,98777.16
2022-11-16T12:12:26.794Z,98771.34
2022-11-16T12:15:11.987Z,98780.38
2022-11-16T12:18:01.924Z,98774.53
2022-11-16T12:20:45.557Z,98782.47
2022-11-16T12:23:38.945Z,98786.78
2022-11-16T12:26:31.962Z,98783.50
2022-11-16T12:29:20.440Z,98788.13
2022-11-16T12:32:11.336Z,98787.47
2022-11-16T12:34:47.144Z,98788.63
2022-11-16T12:40:19.125Z,98798.63
2022-11-16T12:42:59.872Z,98800.41
2022-11-16T12:45:37.417Z,98808.41
2022-11-16T12:48:35.614Z,98812.03
2022-11-16T12:51:31.954Z,98806.88
2022-11-16T12:54:10.063Z,98807.03
2022-11-16T12:56:49.265Z,98811.66
2022-11-16T12:59:22.063Z,98811.78
2022-11-16T13:02:00.459Z,98814.34
2022-11-16T13:04:42.277Z,98822.22
2022-11-16T13:07:19.079Z,98826.59
2022-11-16T13:09:52.646Z,98825.84
2022-11-16T13:12:24.775Z,98827.94
2022-11-16T13:14:57.257Z,98829.69
2022-11-16T13:17:36.334Z,98833.13
2022-11-16T13:20:23.148Z,98834.00
2022-11-16T13:23:10.636Z,98830.06
2022-11-16T13:25:47.276Z,98838.25
2022-11-16T13:28:21.733Z,98836.78
2022-11-16T13:31:11.884Z,98836.28
2022-11-16T13:33:54.941Z,98845.53
2022-11-16T13:36:46.010Z,98848.03
2022-11-16T13:39:23.497Z,98848.25
2022-11-16T13:42:08.565Z,98855.06
2022-11-16T13:44:37.908Z,98855.47
2022-11-16T13:47:27.245Z,98854.25
2022-11-16T13:50:03.339Z,98854.72
2022-11-16T13:55:47.485Z,98856.41
2022-11-16T13:58:23.655Z,98860.69
2022-11-16T14:01:03.789Z,98867.75
2022-11-16T14:03:39.391Z,98859.66
2022-11-16T14:06:31.005Z,98859.69
2022-11-16T14:09:01.783Z,98866.91
2022-11-16T14:11:39.970Z,98867.69
2022-11-16T14:14:14.846Z,98868.75
2022-11-16T14:16:49.738Z,98867.84
2022-11-16T14:19:50.277Z,98867.78
2022-11-16T14:22:45.663Z,98875.66
2022-11-16T14:25:23.698Z,98874.91
2022-11-16T14:28:11.227Z,98874.97
2022-11-16T14:31:07.773Z,98872.50
2022-11-16T14:33:39.191Z,98877.97
2022-11-16T14:36:11.297Z,98878.06
2022-11-16T14:38:45.744Z,98879.75
2022-11-16T14:41:22.200Z,98886.72
2022-11-16T14:43:55.377Z,98879.91
2022-11-16T14:46:33.926Z,98883.47
2022-11-16T14:49:04.614Z,98888.84
2022-11-16T14:51:37.961Z,98888.00
2022-11-16T14:54:21.732Z,98894.78
2022-11-16T14:57:01.359Z,98893.94
2022-11-16T14:59:32.656Z,98900.31
2022-11-16T15:02:19.309Z,98903.50
2022-11-16T15:04:49.925Z,98907.31
2022-11-16T15:07:20.500Z,98911.66
2022-11-16T15:09:54.650Z,98915.03
2022-11-16T15:12:43.024Z,98908.09
2022-11-16T15:15:12.385Z,98914.50
2022-11-16T15:17:44.063Z,98910.94
2022-11-16T15:20:25.948Z,98916.75
2022-11-16T15:22:58.153Z,98918.66
2022-11-16T15:25:44.648Z,98922.03
2022-11-16T15:28:24.496Z,98916.84
2022-11-16T15:30:58.847Z,98915.22
2022-11-16T15:33:31.969Z,98925.75
2022-11-16T15:36:01.433Z,98915.63
2022-11-16T15:38:35.048Z,98924.91
2022-11-16T15:41:07.067Z,98932.84
2022-11-16T15:43:49.623Z,98937.94
2022-11-16T15:46:35.715Z,98937.00
2022-11-16T15:49:07.224Z,98931.13
2022-11-16T15:51:45.686Z,98934.34
2022-11-16T15:54:27.920Z,98931.75
2022-11-16T15:57:06.617Z,98931.13
2022-11-16T15:59:38.683Z,98936.38
2022-11-16T16:02:30.652Z,98929.41
2022-11-16T16:05:00.031Z,98937.59
2022-11-16T16:07:40.857Z,98933.03
2022-11-16T16:10:22.265Z,98942.66
2022-11-16T16:12:56.934Z,98941.16
2022-11-16T16:15:41.217Z,98935.19
2022-11-16T16:18:41.037Z,98944.63
2022-11-16T16:21:12.819Z,98943.19
2022-11-16T16:23:50.973Z,98941.16
2022-11-16T16:26:20.311Z,98940.59
2022-11-16T16:28:49.375Z,98933.72
2022-11-16T16:31:20.060Z,98939.81
2022-11-16T16:33:49.222Z,98936.41
2022-11-16T16:36:18.325Z,98934.78
2022-11-16T16:38:47.614Z,98934.84
2022-11-16T16:41:24.008Z,98934.78
2022-11-16T16:43:53.531Z,98934.88
2022-11-16T16:46:23.029Z,98937.56
2022-11-16T16:48:52.004Z,98934.09
2022-11-16T16:51:20.864Z,98932.38
2022-11-16T16:53:50.128Z,98936.78
2022-11-16T16:56:20.847Z,98940.31
2022-11-16T16:58:50.099Z,98933.47
2022-11-16T17:01:19.464Z,98940.44
2022-11-16T17:03:49.123Z,98941.31
2022-11-16T17:06:18.490Z,98935.28
2022-11-16T17:08:47.212Z,98936.19
2022-11-16T17:11:17.180Z,98937.13
2022-11-16T17:13:46.445Z,98943.97
2022-11-16T17:16:15.932Z,98933.66
2022-11-16T17:18:45.688Z,98939.75
2022-11-16T17:21:16.138Z,98939.91
2022-11-16T17:23:44.844Z,98946.00
2022-11-16T17:26:13.813Z,98936.66
2022-11-16T17:28:43.374Z,98937.31
2022-11-16T17:31:13.140Z,98938.22
2022-11-16T17:33:44.129Z,98937.22
2022-11-16T17:36:14.420Z,98941.59
2022-11-16T17:38:43.821Z,98941.63
2022-11-16T17:41:21.610Z,98931.16
2022-11-16T17:43:54.080Z,98934.78
2022-11-16T17:46:25.421Z,98928.72
2022-11-16T17:48:54.759Z,98940.09
2022-11-16T17:51:26.256Z,98931.38
2022-11-16T17:53:55.519Z,98941.75
2022-11-16T17:56:28.545Z,98928.50
2022-11-16T17:58:59.327Z,98931.03
2022-11-16T18:01:29.716Z,98926.69
2022-11-16T18:03:58.801Z,98920.66
2022-11-16T18:06:27.764Z,98920.78
2022-11-16T18:08:58.200Z,98922.34
2022-11-16T18:11:28.652Z,98919.69
2022-11-16T18:14:02.267Z,98916.09
2022-11-16T18:16:33.302Z,98917.09
2022-11-16T18:19:05.202Z,98905.16
2022-11-16T18:21:41.414Z,98900.09
2022-11-16T18:24:11.669Z,98915.81
2022-11-16T18:26:41.652Z,98897.88
2022-11-16T18:29:17.132Z,98907.47
2022-11-16T18:31:46.662Z,98903.28
2022-11-16T18:34:16.151Z,98907.47
2022-11-16T18:36:45.222Z,98900.47
2022-11-16T18:39:14.055Z,98900.47
2022-11-16T18:41:53.449Z,98900.38
2022-11-16T18:44:24.135Z,98885.88
2022-11-16T18:46:53.132Z,98897.09
2022-11-16T18:49:22.122Z,98885.88
2022-11-16T18:51:50.976Z,98892.91
2022-11-16T18:54:20.672Z,98891.25
2022-11-16T18:56:49.885Z,98889.53
2022-11-16T18:59:19.173Z,98891.59
2022-11-16T19:01:48.074Z,98889.13
2022-11-16T19:04:17.246Z,98884.13
2022-11-16T19:06:46.576Z,98878.81
2022-11-16T19:09:15.432Z,98878.81
2022-11-16T19:11:44.582Z,98871.91
2022-11-16T19:14:13.884Z,98867.84
2022-11-16T19:16:54.045Z,98861.66
2022-11-16T19:19:26.406Z,98867.78
2022-11-16T19:21:58.132Z,98860.75
2022-11-16T19:24:27.079Z,98862.66
2022-11-16T19:26:56.076Z,98855.81
2022-11-16T19:29:25.424Z,98857.44
2022-11-16T19:31:54.204Z,98858.44
2022-11-16T19:34:23.047Z,98846.38
2022-11-16T19:36:52.282Z,98845.72
2022-11-16T19:39:22.929Z,98843.94
2022-11-16T19:41:51.893Z,98836.91
2022-11-16T19:44:21.202Z,98836.97
2022-11-16T19:46:50.337Z,98831.72
2022-11-16T19:49:20.698Z,98831.72
2022-11-16T19:51:50.592Z,98831.84
2022-11-16T19:54:19.305Z,98832.84
2022-11-16T19:56:54.680Z,98827.59
2022-11-16T19:59:23.950Z,98827.59
2022-11-16T20:01:53.183Z,98826.75
2022-11-16T20:04:22.084Z,98829.31
2022-11-16T20:06:51.159Z,98828.41
2022-11-16T20:09:20.466Z,98827.66
2022-11-16T20:11:49.189Z,98832.78
2022-11-16T20:14:18.091Z,98831.13
2022-11-16T20:16:50.956Z,98831.97
2022-11-16T20:19:20.675Z,98834.25
2022-11-16T20:21:49.532Z,98831.25
2022-11-16T20:24:19.712Z,98829.38
2022-11-16T20:26:50.232Z,98833.84
2022-11-16T20:29:20.797Z,98828.84
2022-11-16T20:31:49.789Z,98826.38
2022-11-16T20:34:21.481Z,98816.88
2022-11-16T20:36:52.210Z,98820.41
2022-11-16T20:39:22.299Z,98815.16
2022-11-16T20:41:51.081Z,98816.03
2022-11-16T20:44:23.221Z,98816.91
2022-11-16T20:46:53.764Z,98811.22
2022-11-16T20:49:23.171Z,98807.78
2022-11-16T20:51:52.554Z,98808.56
2022-11-16T20:54:21.528Z,98806.78
2022-11-16T20:56:51.428Z,98805.06
2022-11-16T20:59:20.767Z,98799.94
2022-11-16T21:01:53.574Z,98794.78
2022-11-16T21:04:23.101Z,98793.00
2022-11-16T21:06:52.398Z,98793.03
2022-11-16T21:09:23.646Z,98793.84
2022-11-16T21:12:11.536Z,98795.56
2022-11-16T21:14:40.659Z,98786.16
2022-11-16T21:17:09.349Z,98793.06
2022-11-16T21:19:38.485Z,98792.13
2022-11-16T21:22:07.427Z,98793.97
2022-11-16T21:24:36.120Z,98781.25
2022-11-16T21:27:05.413Z,98786.34
2022-11-16T21:29:34.633Z,98782.13
2022-11-16T21:32:03.860Z,98775.13
2022-11-16T21:34:37.285Z,98781.34
2022-11-16T21:37:08.833Z,98775.25
2022-11-16T21:39:38.339Z,98776.13
2022-11-16T21:42:07.073Z,98779.63
2022-11-16T21:44:43.116Z,98780.50
2022-11-16T21:47:15.244Z,98776.97
2022-11-16T21:50:08.717Z,98776.19
2022-11-16T21:52:33.695Z,98774.53
2022-11-16T21:55:02.702Z,98775.44
2022-11-16T21:57:31.695Z,98773.72
2022-11-16T22:00:01.947Z,98767.75
2022-11-16T22:02:40.192Z,98771.25
2022-11-16T22:05:28.436Z,98768.72
2022-11-16T22:07:58.022Z,98764.47
2022-11-16T22:10:27.046Z,98762.00
2022-11-16T22:12:56.004Z,98765.28
2022-11-16T22:15:25.203Z,98757.69
2022-11-16T22:17:54.022Z,98758.56
2022-11-16T22:20:23.437Z,98760.16
2022-11-16T22:22:52.110Z,98760.16
2022-11-16T22:25:21.347Z,98761.31
2022-11-16T22:28:19.212Z,98756.94
2022-11-16T22:30:39.458Z,98764.00
2022-11-16T22:33:08.536Z,98760.84
2022-11-16T22:35:40.296Z,98765.47
2022-11-16T22:38:09.533Z,98767.28
2022-11-16T22:40:38.499Z,98762.94
2022-11-16T22:43:07.265Z,98758.72
2022-11-16T22:45:36.347Z,98764.72
2022-11-16T22:48:05.368Z,98765.56
2022-11-16T22:50:34.359Z,98766.38
2022-11-16T22:53:03.368Z,98757.75
2022-11-16T22:55:35.518Z,98761.44
2022-11-16T22:58:06.467Z,98763.31
2022-11-16T23:00:40.680Z,98758.84
2022-11-16T23:03:11.172Z,98758.16
2022-11-16T23:05:40.292Z,98758.94
2022-11-16T23:08:09.386Z,98758.88
2022-11-16T23:10:58.193Z,98757.09
2022-11-16T23:13:46.003Z,98763.16
2022-11-16T23:16:15.229Z,98757.22
2022-11-16T23:18:43.928Z,98757.38
2022-11-16T23:21:31.216Z,98753.66
2022-11-16T23:24:18.292Z,98763.09
2022-11-16T23:27:06.229Z,98761.53
2022-11-16T23:29:35.213Z,98763.31
2022-11-16T23:32:03.874Z,98758.34
2022-11-16T23:34:33.005Z,98759.16
2022-11-16T23:37:07.071Z,98764.22
2022-11-16T23:39:36.576Z,98766.88
2022-11-16T23:42:23.705Z,98772.03
2022-11-16T23:44:53.198Z,98769.38
2022-11-16T23:47:21.982Z,98769.41
2022-11-16T23:49:50.844Z,98778.94
2022-11-16T23:52:20.489Z,98778.22
2022-11-16T23:54:49.347Z,98785.00
2022-11-16T23:57:18.308Z,98782.38
2022-11-16T23:59:50.102Z,98784.78
